createdAt,value
2019-03-31T00:02:26.222Z,80.00
2019-03-31T00:04:55.224Z,67.70
2019-03-31T00:07:24.121Z,63.77
2019-03-31T00:09:53.041Z,68.27
2019-03-31T00:12:21.954Z,66.43
2019-03-31T00:14:50.885Z,59.53
2019-03-31T00:17:19.802Z,62.57
2019-03-31T00:19:48.715Z,65.13
2019-03-31T00:22:17.645Z,57.70
2019-03-31T00:24:46.561Z,46.40
2019-03-31T00:27:15.473Z,48.80
2019-03-31T00:29:44.385Z,56.13
2019-03-31T00:32:13.302Z,49.97
2019-03-31T00:34:42.218Z,48.30
2019-03-31T00:37:11.137Z,47.57
2019-03-31T00:39:40.056Z,51.07
2019-03-31T00:42:08.971Z,49.07
2019-03-31T00:44:37.895Z,45.00
2019-03-31T00:47:06.815Z,45.50
2019-03-31T00:49:35.717Z,42.87
2019-03-31T00:52:04.641Z,40.83
2019-03-31T00:54:33.563Z,38.23
2019-03-31T00:57:02.810Z,42.63
2019-03-31T00:59:31.809Z,43.53
2019-03-31T01:02:02.386Z,30.23
2019-03-31T01:04:31.629Z,33.47
2019-03-31T01:07:00.637Z,35.97
2019-03-31T01:09:31.178Z,35.40
2019-03-31T01:12:00.254Z,33.13
2019-03-31T01:14:29.427Z,30.97
2019-03-31T01:16:59.871Z,29.17
2019-03-31T01:19:29.813Z,33.27
2019-03-31T01:21:59.291Z,31.57
2019-03-31T01:24:28.694Z,24.67
2019-03-31T01:26:58.038Z,32.00
2019-03-31T01:29:27.378Z,26.80
2019-03-31T01:31:56.777Z,33.87
2019-03-31T01:34:26.362Z,30.90
2019-03-31T01:36:55.696Z,31.83
2019-03-31T01:39:26.761Z,31.60
2019-03-31T01:41:56.093Z,34.53
2019-03-31T01:44:25.426Z,34.00
2019-03-31T01:46:54.763Z,35.30
2019-03-31T01:49:24.089Z,31.27
2019-03-31T01:51:53.427Z,27.33
2019-03-31T01:54:22.757Z,28.50
2019-03-31T01:56:52.161Z,28.67
2019-03-31T01:59:21.493Z,28.00
2019-03-31T02:02:03.658Z,29.77
2019-03-31T02:04:21.878Z,31.90
2019-03-31T02:06:51.209Z,26.50
2019-03-31T02:09:20.615Z,29.80
2019-03-31T02:11:49.954Z,33.47
2019-03-31T02:14:19.285Z,30.23
2019-03-31T02:16:48.624Z,29.47
2019-03-31T02:19:18.039Z,29.90
2019-03-31T02:21:47.367Z,32.17
2019-03-31T02:24:16.734Z,30.77
2019-03-31T02:26:46.073Z,32.17
2019-03-31T02:29:15.406Z,32.27
2019-03-31T02:31:44.808Z,36.70
2019-03-31T02:34:14.153Z,30.00
2019-03-31T02:36:43.479Z,26.10
2019-03-31T02:39:12.818Z,23.87
2019-03-31T02:41:42.166Z,21.00
2019-03-31T02:44:11.502Z,27.43
2019-03-31T02:46:40.839Z,26.83
2019-03-31T02:49:10.175Z,26.93
2019-03-31T02:51:39.735Z,29.20
2019-03-31T02:54:09.116Z,28.67
2019-03-31T02:56:39.596Z,23.37
2019-03-31T02:59:09.175Z,25.93
2019-03-31T03:01:40.153Z,27.53
2019-03-31T03:04:09.958Z,31.93
2019-03-31T03:06:40.899Z,25.40
2019-03-31T03:09:10.238Z,23.97
2019-03-31T03:11:41.301Z,32.40
2019-03-31T03:14:12.688Z,27.97
2019-03-31T03:16:42.024Z,26.53
2019-03-31T03:19:11.362Z,29.90
2019-03-31T03:21:40.700Z,29.83
2019-03-31T03:24:10.043Z,29.37
2019-03-31T03:26:39.373Z,32.93
2019-03-31T03:29:08.698Z,31.07
2019-03-31T03:31:38.026Z,29.27
2019-03-31T03:34:07.363Z,23.47
2019-03-31T03:36:36.706Z,29.10
2019-03-31T03:39:07.584Z,29.60
2019-03-31T03:41:36.912Z,25.13
2019-03-31T03:44:06.247Z,32.20
2019-03-31T03:46:35.604Z,30.27
2019-03-31T03:49:05.114Z,30.33
2019-03-31T03:51:34.516Z,26.27
2019-03-31T03:54:03.911Z,24.33
2019-03-31T03:56:33.259Z,25.70
2019-03-31T03:59:02.592Z,26.83
2019-03-31T04:01:32.356Z,29.23
2019-03-31T04:04:01.726Z,26.33
2019-03-31T04:06:31.072Z,25.90
2019-03-31T04:09:00.409Z,24.07
2019-03-31T04:11:29.803Z,23.50
2019-03-31T04:13:59.138Z,24.80
2019-03-31T04:16:28.557Z,24.00
2019-03-31T04:18:57.959Z,27.70
2019-03-31T04:21:27.400Z,22.87
2019-03-31T04:23:56.806Z,25.27
2019-03-31T04:26:26.215Z,28.50
2019-03-31T04:28:55.628Z,19.23
2019-03-31T04:31:24.956Z,22.83
2019-03-31T04:33:54.303Z,21.10
2019-03-31T04:36:23.650Z,19.73
2019-03-31T04:38:52.994Z,20.63
2019-03-31T04:41:22.331Z,23.07
2019-03-31T04:43:51.682Z,13.53
2019-03-31T04:46:20.978Z,15.97
2019-03-31T04:48:50.334Z,13.00
2019-03-31T04:51:19.678Z,11.10
2019-03-31T04:53:49.003Z,9.67
2019-03-31T04:56:18.326Z,13.30
2019-03-31T04:58:47.662Z,8.10
2019-03-31T05:01:16.986Z,8.43
2019-03-31T05:03:46.314Z,12.57
2019-03-31T05:06:15.638Z,9.70
2019-03-31T05:08:44.976Z,7.23
2019-03-31T05:11:14.310Z,6.77
2019-03-31T05:13:43.656Z,11.77
2019-03-31T05:16:12.995Z,10.93
2019-03-31T05:18:42.338Z,10.77
2019-03-31T05:21:11.660Z,9.03
2019-03-31T05:23:40.982Z,8.60
2019-03-31T05:26:10.326Z,9.70
2019-03-31T05:28:40.408Z,7.77
2019-03-31T05:31:09.882Z,8.40
2019-03-31T05:33:39.205Z,11.13
2019-03-31T05:36:08.549Z,6.07
2019-03-31T05:38:37.875Z,5.27
2019-03-31T05:41:07.205Z,9.87
2019-03-31T05:43:36.544Z,10.77
2019-03-31T05:46:05.866Z,9.37
2019-03-31T05:48:35.262Z,10.40
2019-03-31T05:51:04.590Z,12.20
2019-03-31T05:53:33.935Z,14.93
2019-03-31T05:56:03.331Z,16.93
2019-03-31T05:58:32.669Z,11.30
2019-03-31T06:01:02.004Z,14.90
2019-03-31T06:03:31.347Z,14.73
2019-03-31T06:06:00.677Z,11.73
2019-03-31T06:08:30.026Z,12.57
2019-03-31T06:10:59.366Z,15.20
2019-03-31T06:13:28.709Z,13.33
2019-03-31T06:15:58.060Z,8.30
2019-03-31T06:18:27.406Z,11.33
2019-03-31T06:20:56.733Z,13.80
2019-03-31T06:23:26.062Z,11.20
2019-03-31T06:25:55.416Z,12.50
2019-03-31T06:28:24.787Z,12.13
2019-03-31T06:30:54.187Z,10.07
2019-03-31T06:33:23.623Z,12.20
2019-03-31T06:35:52.924Z,7.73
2019-03-31T06:38:22.258Z,15.70
2019-03-31T06:40:56.154Z,10.97
2019-03-31T06:43:25.490Z,13.03
2019-03-31T06:45:54.818Z,13.67
2019-03-31T06:48:24.183Z,11.57
2019-03-31T06:50:53.515Z,16.33
2019-03-31T06:53:22.851Z,10.20
2019-03-31T06:55:52.199Z,12.80
2019-03-31T06:58:21.537Z,14.27
2019-03-31T07:00:50.878Z,14.73
2019-03-31T07:03:20.211Z,13.40
2019-03-31T07:05:49.543Z,11.67
2019-03-31T07:08:18.895Z,7.63
2019-03-31T07:10:48.222Z,9.67
2019-03-31T07:13:17.559Z,8.73
2019-03-31T07:15:46.907Z,11.67
2019-03-31T07:18:16.256Z,14.40
2019-03-31T07:20:45.588Z,9.57
2019-03-31T07:23:14.942Z,11.50
2019-03-31T07:25:44.275Z,6.63
2019-03-31T07:28:13.618Z,11.77
2019-03-31T07:30:42.963Z,10.83
2019-03-31T07:33:12.316Z,13.03
2019-03-31T07:35:41.648Z,9.13
2019-03-31T07:38:10.996Z,11.67
2019-03-31T07:40:40.536Z,11.13
2019-03-31T07:43:09.961Z,11.83
2019-03-31T07:45:39.373Z,9.90
2019-03-31T07:48:08.698Z,8.30
2019-03-31T07:50:38.038Z,8.87
2019-03-31T07:53:07.371Z,6.37
2019-03-31T07:55:36.722Z,8.77
2019-03-31T07:58:06.057Z,7.03
2019-03-31T08:00:35.378Z,7.87
2019-03-31T08:03:05.491Z,9.10
2019-03-31T08:05:37.602Z,9.50
2019-03-31T08:08:05.855Z,8.40
2019-03-31T08:10:35.254Z,8.60
2019-03-31T08:13:04.590Z,7.70
2019-03-31T08:15:33.922Z,9.83
2019-03-31T08:18:03.752Z,6.13
2019-03-31T08:20:33.084Z,5.37
2019-03-31T08:23:02.431Z,10.03
2019-03-31T08:25:32.015Z,7.47
2019-03-31T08:28:01.364Z,9.10
2019-03-31T08:30:30.690Z,9.13
2019-03-31T08:33:00.041Z,7.37
2019-03-31T08:35:29.407Z,11.97
2019-03-31T08:37:58.718Z,11.60
2019-03-31T08:40:28.165Z,11.60
2019-03-31T08:42:57.489Z,10.23
2019-03-31T08:45:28.944Z,11.00
2019-03-31T08:47:57.864Z,8.23
2019-03-31T08:50:27.198Z,5.23
2019-03-31T08:52:56.534Z,6.33
2019-03-31T08:55:25.871Z,7.93
2019-03-31T08:57:55.202Z,8.87
2019-03-31T09:00:34.588Z,7.10
2019-03-31T09:03:04.927Z,4.57
2019-03-31T09:05:37.402Z,7.40
2019-03-31T09:08:09.682Z,7.30
2019-03-31T09:10:39.783Z,6.60
2019-03-31T09:13:09.127Z,5.83
2019-03-31T09:15:38.470Z,12.17
2019-03-31T09:18:07.801Z,6.00
2019-03-31T09:20:37.139Z,7.87
2019-03-31T09:23:06.469Z,5.83
2019-03-31T09:25:35.802Z,9.93
2019-03-31T09:28:05.145Z,6.10
2019-03-31T09:30:34.486Z,8.30
2019-03-31T09:33:09.809Z,6.23
2019-03-31T09:35:41.125Z,6.30
2019-03-31T09:38:17.562Z,7.77
2019-03-31T09:40:50.525Z,9.57
2019-03-31T09:43:20.006Z,7.47
2019-03-31T09:45:49.341Z,7.17
2019-03-31T09:48:18.675Z,9.63
2019-03-31T09:50:48.026Z,8.13
2019-03-31T09:53:17.357Z,5.83
2019-03-31T09:55:46.691Z,7.97
2019-03-31T09:58:16.013Z,8.03
2019-03-31T10:00:47.694Z,7.17
2019-03-31T10:03:17.187Z,7.23
2019-03-31T10:05:48.208Z,8.87
2019-03-31T10:08:17.730Z,6.93
2019-03-31T10:10:47.067Z,8.80
2019-03-31T10:13:16.394Z,7.57
2019-03-31T10:15:45.734Z,6.07
2019-03-31T10:18:18.000Z,6.97
2019-03-31T10:20:46.100Z,4.20
2019-03-31T10:23:15.439Z,10.57
2019-03-31T10:25:44.771Z,8.57
2019-03-31T10:28:14.118Z,7.67
2019-03-31T10:30:43.450Z,4.97
2019-03-31T10:33:12.785Z,9.37
2019-03-31T10:35:42.119Z,10.27
2019-03-31T10:38:11.445Z,9.57
2019-03-31T10:40:40.788Z,6.93
2019-03-31T10:43:10.116Z,11.63
2019-03-31T10:45:39.453Z,4.63
2019-03-31T10:48:19.597Z,5.40
2019-03-31T10:50:40.175Z,5.83
2019-03-31T10:53:09.569Z,6.67
2019-03-31T10:55:38.900Z,4.90
2019-03-31T10:58:08.229Z,7.87
2019-03-31T11:00:38.198Z,5.67
2019-03-31T11:03:09.388Z,5.97
2019-03-31T11:05:38.752Z,6.43
2019-03-31T11:08:08.095Z,7.07
2019-03-31T11:10:37.511Z,5.83
2019-03-31T11:13:06.912Z,7.60
2019-03-31T11:15:36.254Z,7.97
2019-03-31T11:18:05.591Z,8.60
2019-03-31T11:20:35.003Z,3.97
2019-03-31T11:23:17.758Z,7.13
2019-03-31T11:25:47.169Z,4.27
2019-03-31T11:28:16.501Z,5.53
2019-03-31T11:30:45.846Z,4.33
2019-03-31T11:33:15.170Z,4.63
2019-03-31T11:35:44.515Z,3.83
2019-03-31T11:38:13.854Z,7.87
2019-03-31T11:40:43.186Z,7.30
2019-03-31T11:43:12.520Z,4.77
2019-03-31T11:45:41.916Z,7.87
2019-03-31T11:48:11.246Z,5.50
2019-03-31T11:50:40.581Z,6.20
2019-03-31T11:53:09.922Z,7.30
2019-03-31T11:55:39.250Z,8.87
2019-03-31T11:58:08.594Z,7.03
2019-03-31T12:00:39.575Z,4.73
2019-03-31T12:03:08.915Z,5.43
2019-03-31T12:05:38.255Z,5.00
2019-03-31T12:08:07.587Z,6.53
2019-03-31T12:10:36.921Z,4.07
2019-03-31T12:13:06.269Z,4.53
2019-03-31T12:15:35.601Z,8.00
2019-03-31T12:18:04.938Z,4.87
2019-03-31T12:20:34.265Z,9.83
2019-03-31T12:23:03.661Z,5.83
2019-03-31T12:25:32.996Z,5.40
2019-03-31T12:28:02.333Z,5.13
2019-03-31T12:30:31.674Z,7.07
2019-03-31T12:33:01.003Z,7.37
2019-03-31T12:35:30.335Z,6.13
2019-03-31T12:37:59.691Z,4.97
2019-03-31T12:40:36.345Z,7.23
2019-03-31T12:43:05.827Z,5.00
2019-03-31T12:45:42.975Z,7.67
2019-03-31T12:48:11.078Z,5.67
2019-03-31T12:50:40.401Z,7.70
2019-03-31T12:53:09.738Z,8.07
2019-03-31T12:55:39.074Z,6.33
2019-03-31T12:58:08.401Z,4.90
2019-03-31T13:00:37.735Z,3.17
2019-03-31T13:03:07.065Z,3.90
2019-03-31T13:05:36.465Z,6.67
2019-03-31T13:08:22.720Z,5.40
2019-03-31T13:10:52.994Z,5.17
2019-03-31T13:13:23.853Z,2.70
2019-03-31T13:15:54.973Z,3.50
2019-03-31T13:18:28.195Z,5.17
2019-03-31T13:20:58.000Z,5.43
2019-03-31T13:23:27.338Z,4.47
2019-03-31T13:25:56.678Z,7.07
2019-03-31T13:28:26.045Z,5.03
2019-03-31T13:30:55.443Z,4.27
2019-03-31T13:33:24.765Z,4.70
2019-03-31T13:35:54.107Z,4.53
2019-03-31T13:38:23.502Z,5.23
2019-03-31T13:40:52.861Z,5.57
2019-03-31T13:43:51.577Z,4.77
2019-03-31T13:46:26.829Z,5.30
2019-03-31T13:48:56.246Z,5.77
2019-03-31T13:51:25.590Z,3.73
2019-03-31T13:53:54.926Z,7.83
2019-03-31T13:56:24.269Z,5.37
2019-03-31T13:58:53.590Z,5.00
2019-03-31T14:01:23.140Z,5.03
2019-03-31T14:03:52.446Z,3.93
2019-03-31T14:06:21.779Z,3.23
2019-03-31T14:08:51.118Z,5.80
2019-03-31T14:11:21.778Z,5.30
2019-03-31T14:13:51.186Z,3.20
2019-03-31T14:16:20.591Z,5.77
2019-03-31T14:18:49.946Z,5.50
2019-03-31T14:21:19.266Z,3.87
2019-03-31T14:23:48.606Z,4.43
2019-03-31T14:26:17.945Z,4.27
2019-03-31T14:28:47.269Z,6.47
2019-03-31T14:31:16.620Z,5.10
2019-03-31T14:33:45.946Z,5.07
2019-03-31T14:36:15.283Z,7.33
2019-03-31T14:38:44.614Z,5.67
2019-03-31T14:41:13.945Z,5.10
2019-03-31T14:43:43.275Z,5.17
2019-03-31T14:46:12.610Z,5.97
2019-03-31T14:48:41.947Z,5.67
2019-03-31T14:51:11.354Z,5.37
2019-03-31T14:53:40.683Z,4.30
2019-03-31T14:56:10.382Z,6.33
2019-03-31T14:58:39.728Z,7.40
2019-03-31T15:01:09.048Z,5.30
2019-03-31T15:03:38.398Z,8.40
2019-03-31T15:06:07.811Z,4.53
2019-03-31T15:08:37.138Z,4.03
2019-03-31T15:11:06.471Z,6.73
2019-03-31T15:13:35.806Z,5.00
2019-03-31T15:16:05.135Z,5.27
2019-03-31T15:18:34.469Z,7.90
2019-03-31T15:21:03.793Z,4.17
2019-03-31T15:23:33.133Z,5.83
2019-03-31T15:26:02.465Z,4.70
2019-03-31T15:28:31.794Z,4.80
2019-03-31T15:31:01.527Z,4.33
2019-03-31T15:33:30.894Z,5.10
2019-03-31T15:36:00.291Z,4.23
2019-03-31T15:38:29.614Z,7.30
2019-03-31T15:40:58.966Z,3.37
2019-03-31T15:43:28.286Z,3.57
2019-03-31T15:45:57.610Z,5.83
2019-03-31T15:48:26.957Z,5.33
2019-03-31T15:50:56.290Z,6.43
2019-03-31T15:53:25.654Z,8.90
2019-03-31T15:55:54.982Z,6.80
2019-03-31T15:58:24.316Z,7.03
2019-03-31T16:00:53.642Z,8.60
2019-03-31T16:03:22.968Z,5.33
2019-03-31T16:05:52.306Z,5.17
2019-03-31T16:08:21.629Z,7.80
2019-03-31T16:10:50.966Z,5.60
2019-03-31T16:13:20.358Z,4.60
2019-03-31T16:15:49.693Z,6.17
2019-03-31T16:18:19.022Z,13.73
2019-03-31T16:20:48.388Z,7.17
2019-03-31T16:23:17.932Z,7.77
2019-03-31T16:25:51.812Z,7.63
2019-03-31T16:28:20.804Z,7.00
2019-03-31T16:30:50.043Z,6.87
2019-03-31T16:33:19.050Z,9.40
2019-03-31T16:35:48.293Z,8.23
2019-03-31T16:38:17.616Z,7.77
2019-03-31T16:40:46.611Z,4.93
2019-03-31T16:43:15.520Z,8.10
2019-03-31T16:45:44.489Z,6.80
2019-03-31T16:48:13.393Z,6.13
2019-03-31T16:50:42.307Z,11.73
2019-03-31T16:53:11.553Z,7.33
2019-03-31T16:55:40.542Z,5.03
2019-03-31T16:58:09.728Z,8.27
2019-03-31T17:00:38.958Z,5.70
2019-03-31T17:03:08.290Z,4.53
2019-03-31T17:05:37.301Z,4.27
2019-03-31T17:08:06.242Z,4.80
2019-03-31T17:10:35.152Z,6.87
2019-03-31T17:13:04.063Z,4.43
2019-03-31T17:15:33.044Z,3.73
2019-03-31T17:18:02.025Z,7.27
2019-03-31T17:20:30.960Z,5.27
2019-03-31T17:22:59.857Z,6.23
2019-03-31T17:25:28.778Z,3.93
2019-03-31T17:27:58.018Z,6.77
2019-03-31T17:30:27.341Z,8.83
2019-03-31T17:32:56.675Z,13.90
2019-03-31T17:35:26.005Z,14.43
2019-03-31T17:37:55.362Z,8.93
2019-03-31T17:40:24.751Z,5.53
2019-03-31T17:42:54.222Z,5.20
2019-03-31T17:45:23.586Z,4.43
2019-03-31T17:47:52.911Z,8.20
2019-03-31T17:50:22.332Z,8.90
2019-03-31T17:52:51.762Z,5.07
2019-03-31T17:55:21.087Z,4.90
2019-03-31T17:57:50.445Z,6.63
2019-03-31T18:00:20.024Z,6.47
2019-03-31T18:02:49.341Z,6.77
2019-03-31T18:05:18.692Z,5.20
2019-03-31T18:07:48.024Z,6.07
2019-03-31T18:10:21.128Z,5.43
2019-03-31T18:12:48.405Z,7.73
2019-03-31T18:15:17.774Z,4.27
2019-03-31T18:17:47.134Z,4.50
2019-03-31T18:20:16.490Z,6.40
2019-03-31T18:22:45.898Z,3.53
2019-03-31T18:25:15.246Z,6.10
2019-03-31T18:27:44.591Z,5.83
2019-03-31T18:30:14.471Z,7.67
2019-03-31T18:32:43.815Z,12.23
2019-03-31T18:35:16.485Z,17.37
2019-03-31T18:37:44.203Z,12.93
2019-03-31T18:40:14.493Z,15.23
2019-03-31T18:42:43.963Z,22.67
2019-03-31T18:45:14.556Z,32.80
2019-03-31T18:47:45.997Z,29.93
2019-03-31T18:50:19.297Z,25.87
2019-03-31T18:52:49.864Z,17.97
2019-03-31T18:55:39.481Z,11.33
2019-03-31T18:58:27.763Z,12.17
2019-03-31T19:01:07.565Z,12.43
2019-03-31T19:03:38.758Z,9.03
2019-03-31T19:06:09.966Z,7.97
2019-03-31T19:08:46.935Z,10.03
2019-03-31T19:11:18.159Z,12.60
2019-03-31T19:14:05.767Z,9.97
2019-03-31T19:16:37.390Z,8.67
2019-03-31T19:19:20.233Z,10.97
2019-03-31T19:22:02.803Z,6.73
2019-03-31T19:24:49.787Z,6.63
2019-03-31T19:27:23.723Z,6.57
2019-03-31T19:30:09.741Z,9.20
2019-03-31T19:32:43.574Z,6.67
2019-03-31T19:35:17.513Z,7.00
2019-03-31T19:37:57.286Z,5.13
2019-03-31T19:40:46.507Z,6.67
2019-03-31T19:43:17.500Z,6.97
2019-03-31T19:45:50.993Z,6.03
2019-03-31T19:48:21.953Z,8.13
2019-03-31T19:50:58.815Z,7.77
2019-03-31T19:53:35.901Z,6.67
2019-03-31T19:56:12.777Z,5.67
2019-03-31T19:58:58.649Z,6.17
2019-03-31T20:01:41.441Z,5.87
2019-03-31T20:04:18.150Z,8.27
2019-03-31T20:06:49.116Z,5.77
2019-03-31T20:09:20.098Z,7.20
2019-03-31T20:11:51.066Z,5.10
2019-03-31T20:14:24.770Z,5.33
2019-03-31T20:17:07.598Z,7.83
2019-03-31T20:19:53.351Z,4.37
2019-03-31T20:22:32.979Z,5.93
2019-03-31T20:25:12.654Z,4.77
2019-03-31T20:27:46.585Z,4.17
2019-03-31T20:30:20.291Z,5.13
2019-03-31T20:32:54.211Z,5.77
2019-03-31T20:35:27.993Z,3.27
2019-03-31T20:37:58.970Z,5.90
2019-03-31T20:40:38.867Z,4.77
2019-03-31T20:43:12.769Z,3.93
2019-03-31T20:45:42.090Z,6.00
2019-03-31T20:48:11.473Z,6.07
2019-03-31T20:50:40.800Z,3.23
2019-03-31T20:53:10.122Z,4.57
2019-03-31T20:55:39.448Z,4.83
2019-03-31T20:58:08.778Z,6.53
2019-03-31T21:00:38.102Z,4.47
2019-03-31T21:03:07.428Z,7.70
2019-03-31T21:05:36.759Z,6.77
2019-03-31T21:08:06.093Z,4.47
2019-03-31T21:10:35.588Z,5.13
2019-03-31T21:13:04.902Z,6.00
2019-03-31T21:15:34.239Z,5.47
2019-03-31T21:18:03.562Z,5.43
2019-03-31T21:20:32.894Z,6.03
2019-03-31T21:23:02.222Z,7.00
2019-03-31T21:25:31.541Z,3.73
2019-03-31T21:28:00.877Z,2.90
2019-03-31T21:30:30.193Z,3.20
2019-03-31T21:32:59.526Z,7.67
2019-03-31T21:35:28.856Z,4.17
2019-03-31T21:37:58.181Z,4.43
2019-03-31T21:40:27.510Z,7.43
2019-03-31T21:42:56.831Z,5.87
2019-03-31T21:45:26.158Z,3.87
2019-03-31T21:47:55.486Z,5.30
2019-03-31T21:50:24.810Z,7.47
2019-03-31T21:52:54.134Z,3.97
2019-03-31T21:55:23.530Z,4.17
2019-03-31T21:57:52.855Z,3.60
2019-03-31T22:00:23.814Z,3.20
2019-03-31T22:02:53.133Z,6.90
2019-03-31T22:05:22.471Z,6.33
2019-03-31T22:07:51.790Z,5.00
2019-03-31T22:10:21.116Z,3.13
2019-03-31T22:12:50.454Z,4.70
2019-03-31T22:15:19.798Z,4.20
2019-03-31T22:17:49.122Z,4.30
2019-03-31T22:20:18.447Z,4.93
2019-03-31T22:22:47.851Z,3.50
2019-03-31T22:25:17.178Z,3.13
2019-03-31T22:27:46.502Z,4.33
2019-03-31T22:30:15.918Z,7.40
2019-03-31T22:32:45.237Z,3.87
2019-03-31T22:35:14.573Z,2.60
2019-03-31T22:37:43.899Z,5.13
2019-03-31T22:40:13.362Z,4.73
2019-03-31T22:42:42.681Z,4.53
2019-03-31T22:45:12.150Z,13.03
2019-03-31T22:47:41.482Z,17.90
2019-03-31T22:50:10.949Z,16.33
2019-03-31T22:52:40.272Z,23.00
2019-03-31T22:55:09.677Z,36.00
2019-03-31T22:57:39.011Z,35.33
2019-03-31T23:00:11.019Z,28.63
2019-03-31T23:02:40.517Z,29.63
2019-03-31T23:05:09.847Z,28.30
2019-03-31T23:07:39.178Z,28.67
2019-03-31T23:10:08.511Z,31.57
2019-03-31T23:12:37.850Z,31.83
2019-03-31T23:15:07.513Z,35.27
2019-03-31T23:17:36.854Z,26.53
2019-03-31T23:20:06.317Z,15.80
2019-03-31T23:22:35.657Z,20.20
2019-03-31T23:25:06.642Z,15.63
2019-03-31T23:27:35.983Z,15.80
2019-03-31T23:30:10.035Z,15.63
2019-03-31T23:32:39.357Z,10.23
2019-03-31T23:35:09.071Z,10.83
2019-03-31T23:37:38.380Z,8.40
2019-03-31T23:40:08.354Z,11.47
2019-03-31T23:42:37.696Z,38.37
2019-03-31T23:45:07.561Z,10.93
2019-03-31T23:47:36.890Z,14.17
2019-03-31T23:50:06.358Z,9.60
2019-03-31T23:52:35.695Z,12.00
2019-03-31T23:55:06.070Z,11.50
2019-03-31T23:57:42.099Z,11.60
